sensor_id;sensor_type;location;lat;lon;timestamp;temperature;humidity
4584;DHT22;2304;47.606;12.186;2023-11-19T00:00:57;5.50;88.30
4584;DHT22;2304;47.606;12.186;2023-11-19T00:05:59;5.50;89.10
4584;DHT22;2304;47.606;12.186;2023-11-19T00:11:01;5.50;88.90
4584;DHT22;2304;47.606;12.186;2023-11-19T00:16:06;5.60;88.70
4584;DHT22;2304;47.606;12.186;2023-11-19T00:21:10;5.60;87.70
4584;DHT22;2304;47.606;12.186;2023-11-19T00:26:12;5.70;87.30
4584;DHT22;2304;47.606;12.186;2023-11-19T00:31:15;5.70;86.60
4584;DHT22;2304;47.606;12.186;2023-11-19T00:36:17;5.90;87.80
4584;DHT22;2304;47.606;12.186;2023-11-19T00:41:19;5.80;87.10
4584;DHT22;2304;47.606;12.186;2023-11-19T00:46:22;5.80;87.50
4584;DHT22;2304;47.606;12.186;2023-11-19T00:51:24;5.80;88.10
4584;DHT22;2304;47.606;12.186;2023-11-19T00:56:27;5.80;87.20
4584;DHT22;2304;47.606;12.186;2023-11-19T01:01:30;5.80;87.70
4584;DHT22;2304;47.606;12.186;2023-11-19T01:06:32;5.70;87.70
4584;DHT22;2304;47.606;12.186;2023-11-19T01:11:34;5.60;88.00
4584;DHT22;2304;47.606;12.186;2023-11-19T01:16:37;5.60;88.50
4584;DHT22;2304;47.606;12.186;2023-11-19T01:21:39;5.60;88.60
4584;DHT22;2304;47.606;12.186;2023-11-19T01:26:42;5.70;89.30
4584;DHT22;2304;47.606;12.186;2023-11-19T01:31:47;5.70;88.90
4584;DHT22;2304;47.606;12.186;2023-11-19T01:36:48;5.60;88.40
4584;DHT22;2304;47.606;12.186;2023-11-19T01:41:50;5.60;88.20
4584;DHT22;2304;47.606;12.186;2023-11-19T01:46:53;5.70;88.30
4584;DHT22;2304;47.606;12.186;2023-11-19T01:51:57;5.70;88.80
4584;DHT22;2304;47.606;12.186;2023-11-19T01:56:59;5.70;89.10
4584;DHT22;2304;47.606;12.186;2023-11-19T02:02:02;5.70;89.50
4584;DHT22;2304;47.606;12.186;2023-11-19T02:07:06;5.60;89.30
4584;DHT22;2304;47.606;12.186;2023-11-19T02:12:08;5.60;89.90
4584;DHT22;2304;47.606;12.186;2023-11-19T02:17:26;5.60;90.00
4584;DHT22;2304;47.606;12.186;2023-11-19T02:22:28;5.70;90.70
4584;DHT22;2304;47.606;12.186;2023-11-19T02:27:39;5.70;90.00
4584;DHT22;2304;47.606;12.186;2023-11-19T02:32:42;5.60;90.30
4584;DHT22;2304;47.606;12.186;2023-11-19T02:37:44;5.80;90.90
4584;DHT22;2304;47.606;12.186;2023-11-19T02:42:47;5.60;90.90
4584;DHT22;2304;47.606;12.186;2023-11-19T02:47:49;5.70;90.90
4584;DHT22;2304;47.606;12.186;2023-11-19T02:52:53;5.70;91.00
4584;DHT22;2304;47.606;12.186;2023-11-19T02:57:58;5.70;91.20
4584;DHT22;2304;47.606;12.186;2023-11-19T03:03:00;5.70;91.20
4584;DHT22;2304;47.606;12.186;2023-11-19T03:08:10;5.90;91.30
4584;DHT22;2304;47.606;12.186;2023-11-19T03:13:14;5.80;91.10
4584;DHT22;2304;47.606;12.186;2023-11-19T03:18:17;5.90;91.00
4584;DHT22;2304;47.606;12.186;2023-11-19T03:23:19;5.80;90.80
4584;DHT22;2304;47.606;12.186;2023-11-19T03:28:22;5.80;91.00
4584;DHT22;2304;47.606;12.186;2023-11-19T03:33:24;5.80;90.20
4584;DHT22;2304;47.606;12.186;2023-11-19T03:38:26;5.90;90.20
4584;DHT22;2304;47.606;12.186;2023-11-19T03:43:31;5.80;90.00
4584;DHT22;2304;47.606;12.186;2023-11-19T03:48:34;5.90;90.80
4584;DHT22;2304;47.606;12.186;2023-11-19T03:53:35;5.80;90.60
4584;DHT22;2304;47.606;12.186;2023-11-19T03:58:39;5.80;91.00
4584;DHT22;2304;47.606;12.186;2023-11-19T04:03:41;5.80;91.70
4584;DHT22;2304;47.606;12.186;2023-11-19T04:08:43;5.80;91.20
4584;DHT22;2304;47.606;12.186;2023-11-19T04:13:46;5.80;91.20
4584;DHT22;2304;47.606;12.186;2023-11-19T04:18:48;5.80;91.40
4584;DHT22;2304;47.606;12.186;2023-11-19T04:23:49;6.00;91.80
4584;DHT22;2304;47.606;12.186;2023-11-19T04:28:53;5.90;91.70
4584;DHT22;2304;47.606;12.186;2023-11-19T04:33:54;6.00;91.70
4584;DHT22;2304;47.606;12.186;2023-11-19T04:38:56;6.00;91.30
4584;DHT22;2304;47.606;12.186;2023-11-19T04:44:01;6.00;91.40
4584;DHT22;2304;47.606;12.186;2023-11-19T04:49:03;6.10;91.90
4584;DHT22;2304;47.606;12.186;2023-11-19T04:54:05;6.10;92.00
4584;DHT22;2304;47.606;12.186;2023-11-19T04:59:08;6.10;93.00
4584;DHT22;2304;47.606;12.186;2023-11-19T05:04:10;6.10;93.20
4584;DHT22;2304;47.606;12.186;2023-11-19T05:09:12;6.10;93.90
4584;DHT22;2304;47.606;12.186;2023-11-19T05:14:15;6.10;93.00
4584;DHT22;2304;47.606;12.186;2023-11-19T05:19:19;6.00;93.10
4584;DHT22;2304;47.606;12.186;2023-11-19T05:24:20;6.00;93.20
4584;DHT22;2304;47.606;12.186;2023-11-19T05:29:24;6.10;93.50
4584;DHT22;2304;47.606;12.186;2023-11-19T05:34:27;6.10;93.60
4584;DHT22;2304;47.606;12.186;2023-11-19T05:39:29;6.10;94.10
4584;DHT22;2304;47.606;12.186;2023-11-19T05:44:32;6.10;94.30
4584;DHT22;2304;47.606;12.186;2023-11-19T05:49:34;6.10;94.10
4584;DHT22;2304;47.606;12.186;2023-11-19T05:54:36;6.10;94.00
4584;DHT22;2304;47.606;12.186;2023-11-19T05:59:39;6.10;93.90
4584;DHT22;2304;47.606;12.186;2023-11-19T06:04:41;6.20;93.80
4584;DHT22;2304;47.606;12.186;2023-11-19T06:09:44;6.20;94.10
4584;DHT22;2304;47.606;12.186;2023-11-19T06:14:47;6.10;94.00
4584;DHT22;2304;47.606;12.186;2023-11-19T06:19:49;6.20;94.20
4584;DHT22;2304;47.606;12.186;2023-11-19T06:24:51;6.30;94.60
4584;DHT22;2304;47.606;12.186;2023-11-19T06:29:54;6.40;94.70
4584;DHT22;2304;47.606;12.186;2023-11-19T06:34:56;6.30;95.00
4584;DHT22;2304;47.606;12.186;2023-11-19T06:39:58;6.40;94.60
4584;DHT22;2304;47.606;12.186;2023-11-19T06:45:01;6.50;94.20
4584;DHT22;2304;47.606;12.186;2023-11-19T06:50:04;6.50;94.10
4584;DHT22;2304;47.606;12.186;2023-11-19T06:55:08;6.50;94.10
4584;DHT22;2304;47.606;12.186;2023-11-19T07:00:12;6.40;93.90
4584;DHT22;2304;47.606;12.186;2023-11-19T07:05:14;6.40;94.20
4584;DHT22;2304;47.606;12.186;2023-11-19T07:10:16;6.40;94.10
4584;DHT22;2304;47.606;12.186;2023-11-19T07:15:19;6.30;94.60
4584;DHT22;2304;47.606;12.186;2023-11-19T07:20:21;6.50;94.80
4584;DHT22;2304;47.606;12.186;2023-11-19T07:25:23;6.50;95.10
4584;DHT22;2304;47.606;12.186;2023-11-19T07:30:26;6.70;95.60
4584;DHT22;2304;47.606;12.186;2023-11-19T07:35:29;6.50;95.50
4584;DHT22;2304;47.606;12.186;2023-11-19T07:40:31;6.50;95.80
4584;DHT22;2304;47.606;12.186;2023-11-19T07:45:34;6.60;95.20
4584;DHT22;2304;47.606;12.186;2023-11-19T07:50:37;6.60;95.00
4584;DHT22;2304;47.606;12.186;2023-11-19T07:55:38;6.70;94.80
4584;DHT22;2304;47.606;12.186;2023-11-19T08:00:42;6.70;94.80
4584;DHT22;2304;47.606;12.186;2023-11-19T08:05:43;6.80;95.10
4584;DHT22;2304;47.606;12.186;2023-11-19T08:10:45;6.80;94.90
4584;DHT22;2304;47.606;12.186;2023-11-19T08:15:49;6.80;94.30
4584;DHT22;2304;47.606;12.186;2023-11-19T08:20:51;6.80;94.70
4584;DHT22;2304;47.606;12.186;2023-11-19T08:25:54;6.80;94.80
4584;DHT22;2304;47.606;12.186;2023-11-19T08:30:57;6.80;95.00
4584;DHT22;2304;47.606;12.186;2023-11-19T08:35:59;6.80;95.60
4584;DHT22;2304;47.606;12.186;2023-11-19T08:41:01;6.80;96.00
4584;DHT22;2304;47.606;12.186;2023-11-19T08:46:09;6.80;96.40
4584;DHT22;2304;47.606;12.186;2023-11-19T08:51:12;6.80;96.50
4584;DHT22;2304;47.606;12.186;2023-11-19T08:56:14;6.90;96.70
4584;DHT22;2304;47.606;12.186;2023-11-19T09:01:17;6.90;96.30
4584;DHT22;2304;47.606;12.186;2023-11-19T09:06:19;7.00;96.10
4584;DHT22;2304;47.606;12.186;2023-11-19T09:11:20;7.10;96.10
4584;DHT22;2304;47.606;12.186;2023-11-19T09:16:24;7.20;95.90
4584;DHT22;2304;47.606;12.186;2023-11-19T09:21:26;7.20;95.70
4584;DHT22;2304;47.606;12.186;2023-11-19T09:26:27;7.30;95.80
4584;DHT22;2304;47.606;12.186;2023-11-19T09:31:31;7.40;95.80
4584;DHT22;2304;47.606;12.186;2023-11-19T09:36:33;7.30;95.60
4584;DHT22;2304;47.606;12.186;2023-11-19T09:41:35;7.40;95.80
4584;DHT22;2304;47.606;12.186;2023-11-19T09:46:38;7.20;95.50
4584;DHT22;2304;47.606;12.186;2023-11-19T09:51:42;7.50;95.90
4584;DHT22;2304;47.606;12.186;2023-11-19T09:56:44;7.60;95.80
4584;DHT22;2304;47.606;12.186;2023-11-19T10:01:49;7.60;95.70
4584;DHT22;2304;47.606;12.186;2023-11-19T10:06:51;7.60;95.50
4584;DHT22;2304;47.606;12.186;2023-11-19T10:11:53;7.60;95.50
4584;DHT22;2304;47.606;12.186;2023-11-19T10:16:56;7.80;95.30
4584;DHT22;2304;47.606;12.186;2023-11-19T10:22:03;7.70;95.10
4584;DHT22;2304;47.606;12.186;2023-11-19T10:27:07;7.90;95.50
4584;DHT22;2304;47.606;12.186;2023-11-19T10:32:12;8.00;95.30
4584;DHT22;2304;47.606;12.186;2023-11-19T10:37:27;8.00;95.30
4584;DHT22;2304;47.606;12.186;2023-11-19T10:42:30;8.10;94.80
4584;DHT22;2304;47.606;12.186;2023-11-19T10:47:35;8.10;94.20
4584;DHT22;2304;47.606;12.186;2023-11-19T10:52:38;8.10;94.30
4584;DHT22;2304;47.606;12.186;2023-11-19T10:57:40;8.10;94.50
4584;DHT22;2304;47.606;12.186;2023-11-19T11:02:49;8.20;94.50
4584;DHT22;2304;47.606;12.186;2023-11-19T11:07:52;8.20;93.90
4584;DHT22;2304;47.606;12.186;2023-11-19T11:12:59;8.30;94.20
4584;DHT22;2304;47.606;12.186;2023-11-19T11:18:03;8.40;94.00
4584;DHT22;2304;47.606;12.186;2023-11-19T11:23:42;8.50;94.10
4584;DHT22;2304;47.606;12.186;2023-11-19T11:28:54;8.50;93.50
4584;DHT22;2304;47.606;12.186;2023-11-19T11:34:34;8.60;92.80
4584;DHT22;2304;47.606;12.186;2023-11-19T11:39:40;8.60;93.10
4584;DHT22;2304;47.606;12.186;2023-11-19T11:44:58;8.70;93.00
4584;DHT22;2304;47.606;12.186;2023-11-19T11:50:07;8.80;93.00
4584;DHT22;2304;47.606;12.186;2023-11-19T11:55:09;8.90;93.10
4584;DHT22;2304;47.606;12.186;2023-11-19T12:00:21;9.00;93.20
4584;DHT22;2304;47.606;12.186;2023-11-19T12:05:24;9.00;92.40
4584;DHT22;2304;47.606;12.186;2023-11-19T12:10:28;9.00;92.30
4584;DHT22;2304;47.606;12.186;2023-11-19T12:15:31;9.10;92.30
4584;DHT22;2304;47.606;12.186;2023-11-19T12:20:35;9.10;91.90
4584;DHT22;2304;47.606;12.186;2023-11-19T12:25:38;9.10;92.10
4584;DHT22;2304;47.606;12.186;2023-11-19T12:30:39;9.10;92.20
4584;DHT22;2304;47.606;12.186;2023-11-19T12:35:44;9.20;91.60
4584;DHT22;2304;47.606;12.186;2023-11-19T12:40:46;9.20;92.20
4584;DHT22;2304;47.606;12.186;2023-11-19T12:45:48;9.20;92.10
4584;DHT22;2304;47.606;12.186;2023-11-19T12:50:52;9.20;92.80
4584;DHT22;2304;47.606;12.186;2023-11-19T12:55:55;9.30;93.10
4584;DHT22;2304;47.606;12.186;2023-11-19T13:01:01;9.40;92.70
4584;DHT22;2304;47.606;12.186;2023-11-19T13:06:06;9.40;92.40
4584;DHT22;2304;47.606;12.186;2023-11-19T13:11:09;9.40;92.10
4584;DHT22;2304;47.606;12.186;2023-11-19T13:16:11;9.60;92.90
4584;DHT22;2304;47.606;12.186;2023-11-19T13:21:14;9.70;92.10
4584;DHT22;2304;47.606;12.186;2023-11-19T13:26:16;10.00;92.40
4584;DHT22;2304;47.606;12.186;2023-11-19T13:31:18;10.00;91.40
4584;DHT22;2304;47.606;12.186;2023-11-19T13:36:21;10.00;91.40
4584;DHT22;2304;47.606;12.186;2023-11-19T13:41:23;10.00;91.30
4584;DHT22;2304;47.606;12.186;2023-11-19T13:46:26;10.00;92.10
4584;DHT22;2304;47.606;12.186;2023-11-19T13:51:29;9.90;91.60
4584;DHT22;2304;47.606;12.186;2023-11-19T13:56:30;9.80;90.80
4584;DHT22;2304;47.606;12.186;2023-11-19T14:01:32;9.90;91.20
4584;DHT22;2304;47.606;12.186;2023-11-19T14:06:35;10.00;91.60
4584;DHT22;2304;47.606;12.186;2023-11-19T14:11:37;10.00;92.00
4584;DHT22;2304;47.606;12.186;2023-11-19T14:16:39;10.20;94.10
4584;DHT22;2304;47.606;12.186;2023-11-19T14:21:42;10.30;93.30
4584;DHT22;2304;47.606;12.186;2023-11-19T14:26:46;10.20;91.90
4584;DHT22;2304;47.606;12.186;2023-11-19T14:31:49;10.10;92.20
4584;DHT22;2304;47.606;12.186;2023-11-19T14:36:52;10.10;92.10
4584;DHT22;2304;47.606;12.186;2023-11-19T14:41:54;10.00;91.80
4584;DHT22;2304;47.606;12.186;2023-11-19T14:46:58;10.10;92.60
4584;DHT22;2304;47.606;12.186;2023-11-19T14:52:04;10.10;92.60
4584;DHT22;2304;47.606;12.186;2023-11-19T14:57:06;10.00;92.20
4584;DHT22;2304;47.606;12.186;2023-11-19T15:02:08;9.90;92.90
4584;DHT22;2304;47.606;12.186;2023-11-19T15:07:12;9.90;93.40
4584;DHT22;2304;47.606;12.186;2023-11-19T15:12:14;9.80;93.70
4584;DHT22;2304;47.606;12.186;2023-11-19T15:17:17;9.80;93.80
4584;DHT22;2304;47.606;12.186;2023-11-19T15:22:20;9.80;94.80
4584;DHT22;2304;47.606;12.186;2023-11-19T15:27:21;9.80;94.90
4584;DHT22;2304;47.606;12.186;2023-11-19T15:32:23;9.70;95.10
4584;DHT22;2304;47.606;12.186;2023-11-19T15:37:26;9.70;95.60
4584;DHT22;2304;47.606;12.186;2023-11-19T15:42:29;9.70;96.70
4584;DHT22;2304;47.606;12.186;2023-11-19T15:47:31;9.60;97.80
4584;DHT22;2304;47.606;12.186;2023-11-19T15:52:34;9.60;98.40
4584;DHT22;2304;47.606;12.186;2023-11-19T15:57:36;9.50;98.80
4584;DHT22;2304;47.606;12.186;2023-11-19T16:02:38;9.60;99.60
4584;DHT22;2304;47.606;12.186;2023-11-19T16:07:41;9.60;99.70
4584;DHT22;2304;47.606;12.186;2023-11-19T16:12:43;9.60;99.90
4584;DHT22;2304;47.606;12.186;2023-11-19T16:17:44;9.70;99.90
4584;DHT22;2304;47.606;12.186;2023-11-19T16:22:48;9.70;99.50
4584;DHT22;2304;47.606;12.186;2023-11-19T16:27:50;9.60;99.10
4584;DHT22;2304;47.606;12.186;2023-11-19T16:32:53;9.60;99.10
4584;DHT22;2304;47.606;12.186;2023-11-19T16:38:00;9.70;99.30
4584;DHT22;2304;47.606;12.186;2023-11-19T16:43:02;9.50;99.50
4584;DHT22;2304;47.606;12.186;2023-11-19T16:48:04;9.60;99.70
4584;DHT22;2304;47.606;12.186;2023-11-19T16:53:08;9.50;99.60
4584;DHT22;2304;47.606;12.186;2023-11-19T16:58:10;9.40;99.50
4584;DHT22;2304;47.606;12.186;2023-11-19T17:03:12;9.40;99.70
4584;DHT22;2304;47.606;12.186;2023-11-19T17:08:15;9.30;99.90
4584;DHT22;2304;47.606;12.186;2023-11-19T17:13:16;9.30;99.90
4584;DHT22;2304;47.606;12.186;2023-11-19T17:18:22;9.30;99.90
4584;DHT22;2304;47.606;12.186;2023-11-19T17:23:26;9.30;99.90
4584;DHT22;2304;47.606;12.186;2023-11-19T17:28:28;9.30;99.90
4584;DHT22;2304;47.606;12.186;2023-11-19T17:33:30;9.20;99.90
4584;DHT22;2304;47.606;12.186;2023-11-19T17:38:33;9.10;99.90
4584;DHT22;2304;47.606;12.186;2023-11-19T17:43:34;9.20;99.90
4584;DHT22;2304;47.606;12.186;2023-11-19T17:48:36;9.20;99.90
4584;DHT22;2304;47.606;12.186;2023-11-19T17:53:39;9.30;99.90
4584;DHT22;2304;47.606;12.186;2023-11-19T17:58:41;9.30;99.90
4584;DHT22;2304;47.606;12.186;2023-11-19T18:03:43;9.40;99.90
4584;DHT22;2304;47.606;12.186;2023-11-19T18:08:46;9.40;99.80
4584;DHT22;2304;47.606;12.186;2023-11-19T18:13:49;9.30;99.30
4584;DHT22;2304;47.606;12.186;2023-11-19T18:18:51;9.30;99.30
4584;DHT22;2304;47.606;12.186;2023-11-19T18:23:54;9.30;99.00
4584;DHT22;2304;47.606;12.186;2023-11-19T18:28:56;9.30;99.10
4584;DHT22;2304;47.606;12.186;2023-11-19T18:33:58;9.20;99.10
4584;DHT22;2304;47.606;12.186;2023-11-19T18:39:01;9.20;99.30
4584;DHT22;2304;47.606;12.186;2023-11-19T18:44:05;9.20;99.40
4584;DHT22;2304;47.606;12.186;2023-11-19T18:49:07;9.10;99.30
4584;DHT22;2304;47.606;12.186;2023-11-19T18:54:11;9.10;99.90
4584;DHT22;2304;47.606;12.186;2023-11-19T18:59:13;9.10;99.50
4584;DHT22;2304;47.606;12.186;2023-11-19T19:04:14;9.10;99.60
4584;DHT22;2304;47.606;12.186;2023-11-19T19:09:18;9.10;99.40
4584;DHT22;2304;47.606;12.186;2023-11-19T19:14:20;9.10;99.10
4584;DHT22;2304;47.606;12.186;2023-11-19T19:19:21;9.20;99.20
4584;DHT22;2304;47.606;12.186;2023-11-19T19:24:25;9.30;98.60
4584;DHT22;2304;47.606;12.186;2023-11-19T19:29:27;9.30;98.10
4584;DHT22;2304;47.606;12.186;2023-11-19T19:34:28;9.20;97.80
4584;DHT22;2304;47.606;12.186;2023-11-19T19:39:32;9.20;97.30
4584;DHT22;2304;47.606;12.186;2023-11-19T19:44:34;9.20;97.30
4584;DHT22;2304;47.606;12.186;2023-11-19T19:49:36;9.20;97.20
4584;DHT22;2304;47.606;12.186;2023-11-19T19:54:39;9.30;97.00
4584;DHT22;2304;47.606;12.186;2023-11-19T19:59:40;9.30;96.80
4584;DHT22;2304;47.606;12.186;2023-11-19T20:04:44;9.30;96.50
4584;DHT22;2304;47.606;12.186;2023-11-19T20:09:47;9.40;96.40
4584;DHT22;2304;47.606;12.186;2023-11-19T20:14:50;9.20;95.90
4584;DHT22;2304;47.606;12.186;2023-11-19T20:19:52;9.30;96.00
4584;DHT22;2304;47.606;12.186;2023-11-19T20:24:55;9.20;95.90
4584;DHT22;2304;47.606;12.186;2023-11-19T20:29:57;9.30;96.00
4584;DHT22;2304;47.606;12.186;2023-11-19T20:34:59;9.30;95.60
4584;DHT22;2304;47.606;12.186;2023-11-19T20:40:02;9.20;94.90
4584;DHT22;2304;47.606;12.186;2023-11-19T20:45:06;9.20;94.70
4584;DHT22;2304;47.606;12.186;2023-11-19T20:50:09;9.20;94.90
4584;DHT22;2304;47.606;12.186;2023-11-19T20:55:12;9.20;95.00
4584;DHT22;2304;47.606;12.186;2023-11-19T21:00:15;9.10;94.90
4584;DHT22;2304;47.606;12.186;2023-11-19T21:05:19;9.10;94.90
4584;DHT22;2304;47.606;12.186;2023-11-19T21:10:22;9.00;94.90
4584;DHT22;2304;47.606;12.186;2023-11-19T21:15:24;9.00;95.60
4584;DHT22;2304;47.606;12.186;2023-11-19T21:20:26;9.00;96.20
4584;DHT22;2304;47.606;12.186;2023-11-19T21:25:29;9.00;96.20
4584;DHT22;2304;47.606;12.186;2023-11-19T21:30:32;9.10;97.50
4584;DHT22;2304;47.606;12.186;2023-11-19T21:35:34;9.10;97.30
4584;DHT22;2304;47.606;12.186;2023-11-19T21:40:39;9.10;97.10
4584;DHT22;2304;47.606;12.186;2023-11-19T21:45:41;9.20;96.60
4584;DHT22;2304;47.606;12.186;2023-11-19T21:50:43;9.20;96.50
4584;DHT22;2304;47.606;12.186;2023-11-19T21:55:47;9.20;96.40
4584;DHT22;2304;47.606;12.186;2023-11-19T22:00:50;9.20;96.10
4584;DHT22;2304;47.606;12.186;2023-11-19T22:05:52;9.20;96.00
4584;DHT22;2304;47.606;12.186;2023-11-19T22:10:55;9.20;95.80
4584;DHT22;2304;47.606;12.186;2023-11-19T22:15:57;9.20;95.40
4584;DHT22;2304;47.606;12.186;2023-11-19T22:20:58;9.20;95.50
4584;DHT22;2304;47.606;12.186;2023-11-19T22:26:02;9.10;95.50
4584;DHT22;2304;47.606;12.186;2023-11-19T22:31:04;9.10;95.40
4584;DHT22;2304;47.606;12.186;2023-11-19T22:36:06;9.10;95.40
4584;DHT22;2304;47.606;12.186;2023-11-19T22:41:12;9.20;95.20
4584;DHT22;2304;47.606;12.186;2023-11-19T22:46:14;9.20;95.40
4584;DHT22;2304;47.606;12.186;2023-11-19T22:51:15;9.00;95.60
4584;DHT22;2304;47.606;12.186;2023-11-19T22:56:19;9.10;95.90
4584;DHT22;2304;47.606;12.186;2023-11-19T23:01:21;9.10;96.00
4584;DHT22;2304;47.606;12.186;2023-11-19T23:06:23;9.20;96.70
4584;DHT22;2304;47.606;12.186;2023-11-19T23:11:26;9.10;96.20
4584;DHT22;2304;47.606;12.186;2023-11-19T23:16:27;9.10;96.30
4584;DHT22;2304;47.606;12.186;2023-11-19T23:21:29;9.10;96.30
4584;DHT22;2304;47.606;12.186;2023-11-19T23:26:32;9.10;96.80
4584;DHT22;2304;47.606;12.186;2023-11-19T23:31:34;9.10;97.30
4584;DHT22;2304;47.606;12.186;2023-11-19T23:36:36;9.20;97.10
4584;DHT22;2304;47.606;12.186;2023-11-19T23:41:39;9.20;96.80
4584;DHT22;2304;47.606;12.186;2023-11-19T23:46:42;9.20;96.90
4584;DHT22;2304;47.606;12.186;2023-11-19T23:51:44;9.20;96.70
4584;DHT22;2304;47.606;12.186;2023-11-19T23:56:47;9.10;97.20
